Time;durP1;ratioP1;P1;durP2;ratioP2;P2;SDS_P1;SDS_P2;PMS_P1;PMS_P2;Temp;Humidity;BMP_temperature;BMP_pressure;BME280_temperature;BME280_humidity;BME280_pressure;Samples;Min_cycle;Max_cycle;Signal;HPM_P1;HPM_P2
2023/08/04 00:01:55;;;;;;;16.00;5.85;;;;;;;11.40;100.00;100951.38;5016449;28;20029;-81
2023/08/04 00:04:21;;;;;;;15.75;5.97;;;;;;;11.43;100.00;100955.56;5015485;28;20037;-81
2023/08/04 00:06:47;;;;;;;15.40;6.03;;;;;;;11.42;100.00;100959.16;5010429;28;20025;-81
2023/08/04 00:09:13;;;;;;;11.65;6.05;;;;;;;11.39;100.00;100948.84;5026462;28;20025;-82
2023/08/04 00:11:39;;;;;;;14.80;5.45;;;;;;;11.38;100.00;100942.75;5016800;28;20124;-81
2023/08/04 00:14:04;;;;;;;17.50;6.05;;;;;;;11.39;100.00;100952.34;5032256;28;20025;-82
2023/08/04 00:16:30;;;;;;;14.10;5.82;;;;;;;11.43;100.00;100954.72;5012974;28;20033;-81
2023/08/04 00:18:56;;;;;;;15.68;5.78;;;;;;;11.43;100.00;100958.22;5025580;28;20085;-81
2023/08/04 00:21:22;;;;;;;16.52;5.75;;;;;;;11.44;100.00;100956.38;5024458;28;20033;-81
2023/08/04 00:23:47;;;;;;;14.73;6.18;;;;;;;11.43;100.00;100949.41;5025519;28;20033;-81
2023/08/04 00:26:13;;;;;;;13.80;6.18;;;;;;;11.44;100.00;100953.72;5010344;28;20513;-81
2023/08/04 00:28:39;;;;;;;12.75;5.40;;;;;;;11.43;100.00;100952.91;5012369;28;20032;-81
2023/08/04 00:31:05;;;;;;;17.10;5.93;;;;;;;11.42;100.00;100953.88;5026139;28;20235;-81
2023/08/04 00:33:31;;;;;;;18.08;5.90;;;;;;;11.44;100.00;100946.63;5035363;28;20032;-81
2023/08/04 00:35:57;;;;;;;11.18;5.32;;;;;;;11.42;100.00;100951.22;5013616;28;20053;-81
2023/08/04 00:38:22;;;;;;;13.18;5.55;;;;;;;11.43;100.00;100944.97;5011601;28;20484;-81
2023/08/04 00:40:49;;;;;;;14.32;5.65;;;;;;;11.38;100.00;100950.69;5036062;28;20030;-80
2023/08/04 00:43:16;;;;;;;19.95;6.00;;;;;;;11.40;100.00;100955.84;5036297;28;20472;-80
2023/08/04 00:45:42;;;;;;;12.27;6.30;;;;;;;11.43;100.00;100962.66;5045023;28;20065;-81
2023/08/04 00:48:08;;;;;;;16.23;5.72;;;;;;;11.43;100.00;100955.56;5004774;28;20447;-81
2023/08/04 00:50:34;;;;;;;16.77;6.53;;;;;;;11.43;100.00;100958.22;5010969;28;20091;-80
2023/08/04 00:53:01;;;;;;;15.85;6.03;;;;;;;11.46;100.00;100968.53;4949238;28;20041;-81
2023/08/04 00:55:27;;;;;;;12.88;5.88;;;;;;;11.47;100.00;100977.28;5049774;28;20034;-81
2023/08/04 00:57:54;;;;;;;14.00;5.95;;;;;;;11.45;100.00;100973.94;5006672;28;20160;-82
2023/08/04 01:00:20;;;;;;;17.65;6.00;;;;;;;11.44;100.00;100982.84;5003531;28;20029;-81
2023/08/04 01:02:46;;;;;;;17.15;5.70;;;;;;;11.43;100.00;100984.69;5008090;28;20081;-82
2023/08/04 01:05:12;;;;;;;15.05;5.65;;;;;;;11.45;100.00;100988.00;5027442;28;20407;-81
2023/08/04 01:07:55;;;;;;;17.52;5.72;;;;;;;11.50;100.00;100999.03;4943563;28;20041;-81
2023/08/04 01:10:34;;;;;;;15.13;5.57;;;;;;;11.48;100.00;101000.97;5023125;28;20029;-81
2023/08/04 01:13:04;;;;;;;16.17;5.82;;;;;;;11.46;100.00;101000.28;5033512;28;20087;-81
2023/08/04 01:15:31;;;;;;;15.40;5.75;;;;;;;11.45;100.00;101011.84;5025115;28;20072;-82
2023/08/04 01:17:58;;;;;;;12.80;5.35;;;;;;;11.48;100.00;101005.44;5017679;28;20292;-81
2023/08/04 01:20:25;;;;;;;13.13;5.55;;;;;;;11.45;100.00;101014.47;5018692;28;20034;-81
2023/08/04 01:22:52;;;;;;;8.77;4.60;;;;;;;11.46;100.00;101010.88;5005654;28;20045;-81
2023/08/04 01:25:22;;;;;;;12.25;4.85;;;;;;;11.49;100.00;101017.69;5011142;28;20494;-81
2023/08/04 01:27:52;;;;;;;11.10;5.07;;;;;;;11.51;100.00;101015.75;5017134;28;20037;-82
2023/08/04 01:30:20;;;;;;;13.88;5.45;;;;;;;11.51;100.00;101021.06;5055621;28;20033;-81
2023/08/04 01:32:49;;;;;;;12.32;5.30;;;;;;;11.48;100.00;101029.28;5024138;28;20038;-81
2023/08/04 01:35:16;;;;;;;12.57;5.30;;;;;;;11.51;100.00;101023.69;5027567;28;20073;-81
2023/08/04 01:37:43;;;;;;;13.25;5.30;;;;;;;11.52;100.00;101033.31;5009323;28;20045;-81
2023/08/04 01:40:10;;;;;;;18.38;5.63;;;;;;;11.51;100.00;101021.91;5006985;28;20037;-81
2023/08/04 01:42:38;;;;;;;17.95;4.95;;;;;;;11.51;100.00;101019.25;5023687;28;20120;-81
2023/08/04 01:45:04;;;;;;;16.08;5.78;;;;;;;11.53;100.00;101013.81;5014421;28;20113;-81
2023/08/04 01:47:30;;;;;;;12.98;4.85;;;;;;;11.57;100.00;101023.16;5009399;28;20057;-81
2023/08/04 01:49:56;;;;;;;14.48;5.97;;;;;;;11.59;100.00;101023.88;5012818;28;20033;-81
2023/08/04 01:52:22;;;;;;;12.75;4.75;;;;;;;11.61;100.00;101016.59;5013101;28;20099;-81
2023/08/04 01:54:48;;;;;;;9.60;4.57;;;;;;;11.61;100.00;101007.84;5023386;28;20117;-81
2023/08/04 01:57:14;;;;;;;16.65;5.53;;;;;;;11.61;100.00;101006.00;5016001;28;20109;-81
2023/08/04 01:59:40;;;;;;;18.02;5.95;;;;;;;11.65;100.00;101010.06;4988901;28;20033;-81
2023/08/04 02:02:07;;;;;;;16.90;5.15;;;;;;;11.69;100.00;101018.56;4994398;28;20518;-81
2023/08/04 02:04:33;;;;;;;13.68;5.65;;;;;;;11.69;100.00;101021.22;5017460;28;20037;-81
2023/08/04 02:06:58;;;;;;;13.05;6.18;;;;;;;11.72;100.00;101025.41;5003182;28;20101;-81
2023/08/04 02:09:27;;;;;;;13.80;5.90;;;;;;;11.75;100.00;101028.59;5015911;28;20030;-80
2023/08/04 02:11:54;;;;;;;19.15;5.40;;;;;;;11.76;100.00;101034.75;5029196;28;20095;-79
2023/08/04 02:14:21;;;;;;;14.18;4.82;;;;;;;11.76;100.00;101032.94;5007934;28;20034;-81
2023/08/04 02:16:46;;;;;;;10.55;5.78;;;;;;;11.79;100.00;101030.03;5017080;28;20041;-81
2023/08/04 02:19:12;;;;;;;14.35;5.38;;;;;;;11.85;100.00;101030.44;5008011;28;20045;-81
2023/08/04 02:21:38;;;;;;;16.35;6.50;;;;;;;11.89;100.00;101037.97;5020970;28;20041;-81
2023/08/04 02:24:05;;;;;;;15.90;6.55;;;;;;;11.94;100.00;101037.56;5029080;28;20041;-81
2023/08/04 02:26:31;;;;;;;18.58;6.70;;;;;;;11.96;100.00;101040.06;5012296;28;20025;-81
2023/08/04 02:28:57;;;;;;;14.93;6.47;;;;;;;12.01;100.00;101043.97;5053288;28;20057;-81
2023/08/04 02:31:26;;;;;;;20.40;6.70;;;;;;;12.06;100.00;101035.59;5025290;28;20208;-81
2023/08/04 02:33:53;;;;;;;20.20;7.55;;;;;;;12.12;100.00;101042.19;5006986;28;20044;-81
2023/08/04 02:36:19;;;;;;;19.40;7.90;;;;;;;12.15;100.00;101044.56;5015257;28;20043;-81
2023/08/04 02:38:45;;;;;;;18.00;7.88;;;;;;;12.17;100.00;101047.09;5043078;28;20037;-81
2023/08/04 02:41:12;;;;;;;17.98;7.40;;;;;;;12.21;100.00;101046.66;4993535;28;20468;-81
2023/08/04 02:43:40;;;;;;;20.58;7.53;;;;;;;12.23;100.00;101049.16;5021202;28;20116;-81
2023/08/04 02:46:08;;;;;;;15.35;8.18;;;;;;;12.28;100.00;101034.50;5018883;28;20119;-81
2023/08/04 02:48:34;;;;;;;20.65;7.35;;;;;;;12.30;100.00;101042.31;5020799;28;20128;-81
2023/08/04 02:51:12;;;;;;;20.80;7.78;;;;;;;12.37;100.00;101037.28;5016768;28;20025;-81
2023/08/04 02:53:46;;;;;;;18.35;8.57;;;;;;;12.40;100.00;101042.31;4994425;28;20081;-81
2023/08/04 02:56:17;;;;;;;18.25;8.38;;;;;;;12.43;100.00;101047.34;5045126;28;20030;-81
2023/08/04 02:58:45;;;;;;;18.50;8.70;;;;;;;12.40;100.00;101048.47;5040943;28;20539;-81
2023/08/04 03:01:11;;;;;;;17.33;8.70;;;;;;;12.39;100.00;101040.66;5023418;28;20033;-82
2023/08/04 03:03:38;;;;;;;23.73;8.80;;;;;;;12.37;100.00;101038.16;5022395;28;20041;-81
2023/08/04 03:06:04;;;;;;;19.23;9.13;;;;;;;12.34;100.00;101038.41;5028325;28;20527;-81
2023/08/04 03:08:33;;;;;;;21.58;8.85;;;;;;;12.30;100.00;101042.31;5054455;28;20029;-81
2023/08/04 03:10:59;;;;;;;18.95;8.75;;;;;;;12.26;100.00;101040.94;5012412;28;20038;-81
2023/08/04 03:13:26;;;;;;;23.55;9.93;;;;;;;12.28;100.00;101042.47;5027043;28;20686;-81
2023/08/04 03:15:59;;;;;;;18.92;9.43;;;;;;;12.32;100.00;101027.13;5011159;28;20057;-81
2023/08/04 03:18:26;;;;;;;19.77;9.35;;;;;;;12.27;100.00;101037.28;5024441;28;20128;-82
2023/08/04 03:20:53;;;;;;;20.65;9.88;;;;;;;12.25;100.00;101039.25;5002430;28;20045;-82
2023/08/04 03:23:19;;;;;;;19.42;9.93;;;;;;;12.20;100.00;101039.66;5016866;28;20088;-81
2023/08/04 03:25:45;;;;;;;22.48;11.07;;;;;;;12.16;100.00;101043.59;4947555;28;20563;-81
2023/08/04 03:28:11;;;;;;;23.77;10.30;;;;;;;12.13;100.00;101038.56;4995886;28;20030;-81
2023/08/04 03:30:37;;;;;;;23.95;10.65;;;;;;;12.08;100.00;101039.00;5029834;28;20029;-81
2023/08/04 03:33:03;;;;;;;19.30;10.07;;;;;;;12.07;100.00;101036.44;5028783;28;20041;-81
2023/08/04 03:35:30;;;;;;;24.63;11.23;;;;;;;12.05;100.00;101033.94;5042259;28;20407;-81
2023/08/04 03:37:56;;;;;;;26.92;11.35;;;;;;;12.04;100.00;101022.50;5011111;28;20400;-81
2023/08/04 03:40:22;;;;;;;20.48;12.27;;;;;;;12.07;100.00;101024.00;5007941;28;20095;-82
2023/08/04 03:42:47;;;;;;;24.95;11.98;;;;;;;12.06;100.00;101029.44;5027100;28;20174;-81
2023/08/04 03:45:13;;;;;;;20.10;11.95;;;;;;;12.00;100.00;101029.06;4944528;28;20025;-81
2023/08/04 03:47:39;;;;;;;26.98;13.57;;;;;;;12.01;100.00;101024.56;5013328;28;20033;-82
2023/08/04 03:50:06;;;;;;;20.15;12.45;;;;;;;12.01;100.00;101033.38;5029247;28;20029;-81
2023/08/04 03:52:32;;;;;;;28.90;13.90;;;;;;;11.96;100.00;101032.94;5014294;28;20099;-81
2023/08/04 03:54:58;;;;;;;29.58;14.30;;;;;;;11.98;100.00;101038.94;5028755;28;20253;-82
2023/08/04 03:57:24;;;;;;;26.77;13.50;;;;;;;11.96;100.00;101038.25;5024876;28;20159;-81
2023/08/04 03:59:52;;;;;;;23.75;13.95;;;;;;;11.96;100.00;101040.06;5017464;28;20037;-81
2023/08/04 04:02:19;;;;;;;34.45;15.25;;;;;;;11.95;100.00;101044.53;5022315;28;20125;-82
2023/08/04 04:04:45;;;;;;;28.67;15.48;;;;;;;11.95;100.00;101041.03;5027617;28;20030;-81
2023/08/04 04:07:10;;;;;;;25.90;14.27;;;;;;;11.95;100.00;101043.69;5029060;28;20384;-82
2023/08/04 04:09:36;;;;;;;25.98;14.77;;;;;;;11.97;100.00;101053.19;5035032;28;20033;-81
2023/08/04 04:12:02;;;;;;;28.17;15.60;;;;;;;11.95;100.00;101051.63;5003638;28;20348;-81
2023/08/04 04:14:28;;;;;;;26.27;14.50;;;;;;;11.93;100.00;101057.06;5017356;28;20127;-81
2023/08/04 04:16:56;;;;;;;24.90;15.85;;;;;;;11.92;100.00;101058.03;5019858;28;20061;-82
2023/08/04 04:19:21;;;;;;;23.60;15.60;;;;;;;11.89;100.00;101066.28;5008306;28;20135;-81
2023/08/04 04:21:47;;;;;;;25.05;16.35;;;;;;;11.87;100.00;101061.13;5008916;28;20503;-81
2023/08/04 04:24:13;;;;;;;28.50;16.02;;;;;;;11.84;100.00;101065.84;5022418;28;20026;-81
2023/08/04 04:26:39;;;;;;;31.92;17.73;;;;;;;11.81;100.00;101066.97;5021278;28;20408;-81
2023/08/04 04:29:04;;;;;;;30.77;17.95;;;;;;;11.83;100.00;101067.66;5027096;28;20037;-82
2023/08/04 04:31:30;;;;;;;35.85;16.92;;;;;;;11.79;100.00;101063.59;5022525;28;20025;-81
2023/08/04 04:33:56;;;;;;;28.70;17.70;;;;;;;11.80;100.00;101062.66;5010485;28;20578;-81
2023/08/04 04:36:22;;;;;;;28.45;16.48;;;;;;;11.78;100.00;101064.59;5022977;28;20029;-81
2023/08/04 04:38:48;;;;;;;25.02;17.38;;;;;;;11.75;100.00;101062.22;4989308;28;20029;-81
2023/08/04 04:41:13;;;;;;;27.17;17.60;;;;;;;11.73;100.00;101062.34;5028500;28;20029;-81
2023/08/04 04:43:39;;;;;;;33.58;17.23;;;;;;;11.71;100.00;101066.94;5022146;28;20432;-81
2023/08/04 04:46:05;;;;;;;33.78;18.50;;;;;;;11.70;100.00;101069.72;5013997;28;20042;-81
2023/08/04 04:48:31;;;;;;;39.00;18.20;;;;;;;11.68;100.00;101071.66;5023146;28;20036;-81
2023/08/04 04:50:57;;;;;;;25.73;18.92;;;;;;;11.64;100.00;101060.53;4991582;28;20034;-81
2023/08/04 04:53:22;;;;;;;26.85;18.02;;;;;;;11.58;100.00;101067.19;5027838;28;20029;-81
2023/08/04 04:55:48;;;;;;;32.00;18.40;;;;;;;11.57;100.00;101069.97;5026564;28;20041;-81
2023/08/04 04:58:14;;;;;;;29.30;18.77;;;;;;;11.57;100.00;101075.25;5025380;28;20084;-81
2023/08/04 05:00:41;;;;;;;36.30;19.90;;;;;;;11.53;100.00;101069.41;4963035;28;20369;-81
2023/08/04 05:03:10;;;;;;;38.47;20.13;;;;;;;11.52;100.00;101067.72;5028451;28;20029;-81
2023/08/04 05:05:37;;;;;;;29.45;19.80;;;;;;;11.52;100.00;101073.03;5029359;28;20391;-81
2023/08/04 05:08:04;;;;;;;31.02;18.67;;;;;;;11.50;100.00;101067.00;5004975;28;20485;-81
2023/08/04 05:10:29;;;;;;;38.53;19.23;;;;;;;11.47;100.00;101073.44;5041931;28;20666;-81
2023/08/04 05:12:55;;;;;;;36.00;20.38;;;;;;;11.45;100.00;101078.00;5024406;28;20046;-81
2023/08/04 05:15:21;;;;;;;32.00;19.80;;;;;;;11.43;100.00;101077.31;5020348;28;20033;-81
2023/08/04 05:17:47;;;;;;;31.00;20.90;;;;;;;11.44;100.00;101072.84;5025139;28;20144;-81
2023/08/04 05:20:13;;;;;;;30.10;19.75;;;;;;;11.43;100.00;101074.69;5025093;28;20425;-81
2023/08/04 05:22:40;;;;;;;37.08;19.45;;;;;;;11.42;100.00;101078.28;5011600;28;20033;-81
2023/08/04 05:25:07;;;;;;;31.20;18.88;;;;;;;11.40;100.00;101083.69;5017636;28;20243;-81
2023/08/04 05:27:33;;;;;;;32.15;19.95;;;;;;;11.38;100.00;101079.53;5027344;28;20029;-81
2023/08/04 05:30:00;;;;;;;29.95;19.10;;;;;;;11.36;100.00;101086.75;5013255;28;20573;-81
2023/08/04 05:32:27;;;;;;;34.13;19.65;;;;;;;11.37;100.00;101086.63;5024097;28;21126;-81
2023/08/04 05:34:52;;;;;;;32.63;20.33;;;;;;;11.35;100.00;101090.38;5025956;28;20095;-81
2023/08/04 05:37:18;;;;;;;40.13;19.92;;;;;;;11.33;100.00;101097.59;5013336;28;20029;-81
2023/08/04 05:39:44;;;;;;;36.38;20.23;;;;;;;11.34;100.00;101101.94;5013174;28;20038;-81
2023/08/04 05:42:10;;;;;;;31.08;20.35;;;;;;;11.37;100.00;101099.84;5020358;28;20495;-81
2023/08/04 05:44:36;;;;;;;33.92;19.17;;;;;;;11.40;100.00;101098.78;5030973;28;20037;-81
2023/08/04 05:47:01;;;;;;;43.65;20.33;;;;;;;11.43;100.00;101101.16;5009826;28;20480;-81
2023/08/04 05:49:27;;;;;;;36.22;20.00;;;;;;;11.44;100.00;101096.66;5029069;28;20079;-81
2023/08/04 05:51:53;;;;;;;38.85;20.98;;;;;;;11.47;100.00;101097.25;5019901;28;20091;-81
2023/08/04 05:54:19;;;;;;;32.95;20.75;;;;;;;11.52;100.00;101104.78;5004610;28;20040;-81
2023/08/04 05:56:44;;;;;;;31.77;20.45;;;;;;;11.57;100.00;101097.28;5032806;28;20471;-81
2023/08/04 05:59:10;;;;;;;37.47;21.00;;;;;;;11.61;100.00;101100.50;5024808;28;20029;-80
2023/08/04 06:01:36;;;;;;;34.05;21.48;;;;;;;11.68;100.00;101106.09;5017182;28;20048;-81
2023/08/04 06:04:02;;;;;;;29.90;21.50;;;;;;;11.75;100.00;101109.88;5026219;28;20124;-81
2023/08/04 06:06:28;;;;;;;31.42;22.42;;;;;;;11.81;100.00;101103.19;5024523;28;20029;-81
2023/08/04 06:08:54;;;;;;;31.45;22.88;;;;;;;11.88;100.00;101105.16;5022375;28;20030;-81
2023/08/04 06:11:21;;;;;;;30.73;20.67;;;;;;;11.95;100.00;101097.50;5009256;28;20060;-81
2023/08/04 06:13:47;;;;;;;27.70;20.67;;;;;;;11.99;100.00;101098.09;5024900;28;20035;-81
2023/08/04 06:16:13;;;;;;;32.35;21.88;;;;;;;12.02;100.00;101098.63;5018849;28;20045;-81
2023/08/04 06:18:40;;;;;;;32.58;22.10;;;;;;;12.11;100.00;101096.16;5008386;28;20042;-81
2023/08/04 06:21:06;;;;;;;31.95;21.83;;;;;;;12.15;100.00;101098.38;5003548;28;20554;-81
2023/08/04 06:23:32;;;;;;;31.02;21.77;;;;;;;12.21;100.00;101104.13;5023484;28;20116;-81
2023/08/04 06:25:58;;;;;;;36.45;21.45;;;;;;;12.22;100.00;101098.69;5007719;28;20044;-81
2023/08/04 06:28:24;;;;;;;32.22;22.70;;;;;;;12.25;100.00;101109.00;5010425;28;20415;-81
2023/08/04 06:30:50;;;;;;;41.30;21.27;;;;;;;12.29;100.00;101112.22;5019516;28;20025;-81
2023/08/04 06:33:16;;;;;;;32.25;21.30;;;;;;;12.30;100.00;101110.38;5026036;28;20033;-81
2023/08/04 06:35:44;;;;;;;32.33;20.08;;;;;;;12.32;100.00;101111.94;5027682;28;20048;-81
2023/08/04 06:38:09;;;;;;;33.15;22.23;;;;;;;12.33;100.00;101108.31;5026150;28;20119;-81
2023/08/04 06:40:35;;;;;;;25.98;19.83;;;;;;;12.38;100.00;101105.22;5027887;28;20084;-81
2023/08/04 06:43:01;;;;;;;34.72;20.65;;;;;;;12.39;100.00;101112.22;5027861;28;20280;-81
2023/08/04 06:45:28;;;;;;;25.50;19.42;;;;;;;12.46;100.00;101104.53;5014895;28;20033;-81
2023/08/04 06:47:54;;;;;;;29.48;21.10;;;;;;;12.49;100.00;101099.78;5010999;28;20034;-81
2023/08/04 06:50:20;;;;;;;29.80;19.67;;;;;;;12.53;100.00;101106.47;5031552;28;20498;-81
2023/08/04 06:52:47;;;;;;;32.40;20.40;;;;;;;12.58;100.00;101102.59;5014046;28;20041;-81
2023/08/04 06:55:13;;;;;;;30.95;19.85;;;;;;;12.64;100.00;101116.13;5028350;28;20411;-81
2023/08/04 06:57:38;;;;;;;32.45;20.63;;;;;;;12.72;100.00;101120.72;5012089;28;20041;-81
2023/08/04 07:00:05;;;;;;;27.35;20.02;;;;;;;12.83;100.00;101126.81;5028979;28;20022;-79
2023/08/04 07:02:31;;;;;;;30.13;19.15;;;;;;;12.86;100.00;101129.19;4994912;28;20407;-80
2023/08/04 07:04:57;;;;;;;35.40;18.02;;;;;;;12.88;100.00;101121.94;5016197;28;20753;-81
2023/08/04 07:07:24;;;;;;;33.47;17.48;;;;;;;12.90;100.00;101112.84;5011368;28;20030;-81
2023/08/04 07:09:50;;;;;;;27.27;17.23;;;;;;;12.92;100.00;101109.19;5018853;28;20467;-81
2023/08/04 07:12:15;;;;;;;26.77;17.10;;;;;;;12.99;100.00;101111.16;5023316;28;20100;-81
2023/08/04 07:14:41;;;;;;;30.67;18.77;;;;;;;13.06;100.00;101106.09;5022368;28;20042;-81
2023/08/04 07:17:07;;;;;;;30.08;18.80;;;;;;;13.18;100.00;101104.13;5011289;28;20828;-81
2023/08/04 07:19:32;;;;;;;27.20;17.95;;;;;;;13.28;100.00;101104.91;5018829;28;20046;-80
2023/08/04 07:21:58;;;;;;;26.90;18.45;;;;;;;13.40;100.00;101105.56;5016128;28;20038;-80
2023/08/04 07:24:25;;;;;;;23.17;16.40;;;;;;;13.53;100.00;101107.06;5015833;28;20070;-81
2023/08/04 07:26:51;;;;;;;27.70;17.55;;;;;;;13.53;100.00;101104.41;5019675;28;20030;-81
2023/08/04 07:29:17;;;;;;;20.83;15.43;;;;;;;13.56;100.00;101105.94;4986986;28;20026;-80
2023/08/04 07:31:42;;;;;;;23.65;17.60;;;;;;;13.57;100.00;101110.28;5013004;28;20034;-80
2023/08/04 07:34:08;;;;;;;23.95;16.23;;;;;;;13.56;100.00;101114.75;5014361;28;20065;-81
2023/08/04 07:36:34;;;;;;;24.15;17.20;;;;;;;13.59;100.00;101117.09;5005207;28;20399;-81
2023/08/04 07:39:00;;;;;;;30.20;17.58;;;;;;;13.59;100.00;101117.09;5018639;28;20416;-81
2023/08/04 07:41:25;;;;;;;24.75;17.33;;;;;;;13.64;100.00;101122.81;5049611;28;20037;-81
2023/08/04 07:43:52;;;;;;;20.40;16.40;;;;;;;13.67;100.00;101136.78;5003407;28;20034;-81
2023/08/04 07:46:24;;;;;;;21.33;16.17;;;;;;;13.69;100.00;101130.34;5024698;28;20108;-81
2023/08/04 07:48:51;;;;;;;21.70;15.98;;;;;;;13.68;100.00;101127.84;5015356;28;20053;-81
2023/08/04 07:51:17;;;;;;;23.75;16.70;;;;;;;13.67;100.00;101129.66;5025792;28;20084;-81
2023/08/04 07:53:43;;;;;;;26.38;16.63;;;;;;;13.65;100.00;101128.94;5017550;28;20033;-80
2023/08/04 07:56:09;;;;;;;31.50;19.55;;;;;;;13.63;100.00;101129.09;5010545;28;20113;-80
2023/08/04 07:58:35;;;;;;;31.02;17.35;;;;;;;13.63;100.00;101121.13;5013732;28;20034;-81
2023/08/04 08:01:03;;;;;;;28.00;16.13;;;;;;;13.67;100.00;101129.66;4990623;28;20033;-81
2023/08/04 08:03:33;;;;;;;27.23;16.08;;;;;;;13.69;100.00;101119.72;5007204;28;20044;-81
2023/08/04 08:06:00;;;;;;;25.10;15.80;;;;;;;13.71;100.00;101127.53;5021088;28;20030;-81
2023/08/04 08:08:26;;;;;;;21.08;15.27;;;;;;;13.73;100.00;101128.22;5007509;28;20041;-81
2023/08/04 08:10:53;;;;;;;27.85;15.45;;;;;;;13.75;100.00;101128.91;4998739;28;20029;-81
2023/08/04 08:13:19;;;;;;;25.25;15.05;;;;;;;13.75;100.00;101134.22;4993990;28;20033;-80
2023/08/04 08:15:45;;;;;;;23.65;15.20;;;;;;;13.84;100.00;101138.63;5026839;28;20120;-80
2023/08/04 08:18:11;;;;;;;24.92;15.88;;;;;;;13.87;100.00;101133.03;5024410;28;20121;-81
2023/08/04 08:20:41;;;;;;;20.00;15.52;;;;;;;13.93;100.00;101130.75;4996787;28;20037;-81
2023/08/04 08:23:08;;;;;;;21.00;14.88;;;;;;;13.92;100.00;101124.59;5007700;28;20034;-81
2023/08/04 08:25:35;;;;;;;25.35;15.85;;;;;;;13.98;100.00;101131.16;5008118;28;20660;-81
2023/08/04 08:28:02;;;;;;;23.75;15.75;;;;;;;14.07;100.00;101129.41;4988699;28;20036;-79
2023/08/04 08:30:28;;;;;;;27.63;15.80;;;;;;;14.19;100.00;101128.19;5018416;28;20030;-80
2023/08/04 08:32:53;;;;;;;21.27;14.68;;;;;;;14.25;100.00;101124.94;5021553;28;20509;-81
2023/08/04 08:35:19;;;;;;;22.65;16.00;;;;;;;14.25;100.00;101126.78;5002087;28;20464;-81
2023/08/04 08:37:45;;;;;;;20.52;14.90;;;;;;;14.32;100.00;101122.50;5016605;28;20021;-81
2023/08/04 08:40:11;;;;;;;19.23;13.55;;;;;;;14.35;100.00;101129.38;5024781;28;20393;-81
2023/08/04 08:42:38;;;;;;;16.80;13.15;;;;;;;14.37;100.00;101138.00;4997095;28;20041;-80
2023/08/04 08:45:05;;;;;;;17.15;13.45;;;;;;;14.37;100.00;101130.88;5019078;28;20025;-81
2023/08/04 08:47:35;;;;;;;24.80;14.65;;;;;;;14.43;100.00;101128.59;4990857;28;20510;-81
2023/08/04 08:50:02;;;;;;;21.30;13.02;;;;;;;14.41;100.00;101123.44;5025052;28;20029;-81
2023/08/04 08:52:33;;;;;;;27.80;13.80;;;;;;;14.39;100.00;101126.25;5028301;28;20041;-81
2023/08/04 08:55:01;;;;;;;17.05;12.25;;;;;;;14.32;100.00;101125.16;5025874;28;20056;-81
2023/08/04 08:57:28;;;;;;;19.92;13.10;;;;;;;14.37;100.00;101114.91;5021429;28;20065;-81
2023/08/04 08:59:57;;;;;;;17.77;12.90;;;;;;;14.47;100.00;101120.16;5031373;28;20033;-81
2023/08/04 09:02:23;;;;;;;24.27;12.55;;;;;;;14.42;100.00;101119.78;5021714;28;20416;-81
2023/08/04 09:04:49;;;;;;;20.55;11.38;;;;;;;14.42;100.00;101124.25;5012079;28;20048;-81
2023/08/04 09:07:15;;;;;;;20.75;12.38;;;;;;;14.42;100.00;101118.94;5017370;28;20403;-81
2023/08/04 09:09:41;;;;;;;19.02;11.80;;;;;;;14.41;100.00;101107.47;5013869;28;20502;-81
2023/08/04 09:12:07;;;;;;;13.68;12.02;;;;;;;14.45;100.00;101098.19;4977386;28;20391;-81
2023/08/04 09:14:51;;;;;;;15.82;11.40;;;;;;;14.56;100.00;101109.56;5023284;28;20076;-81
2023/08/04 09:17:34;;;;;;;19.15;11.85;;;;;;;14.58;100.00;101102.28;5027949;28;20025;-81
2023/08/04 09:20:06;;;;;;;16.98;10.65;;;;;;;14.65;100.00;101116.63;5011851;28;20108;-81
2023/08/04 09:22:37;;;;;;;16.40;10.45;;;;;;;14.69;100.00;101115.31;5030815;28;20029;-81
2023/08/04 09:25:04;;;;;;;20.00;11.25;;;;;;;14.77;100.00;101119.88;5022033;28;20035;-81
2023/08/04 09:27:33;;;;;;;18.05;11.57;;;;;;;14.86;100.00;101121.63;5038092;28;20075;-81
2023/08/04 09:30:03;;;;;;;16.35;12.02;;;;;;;14.95;100.00;101111.88;5040806;28;20061;-81
2023/08/04 09:32:30;;;;;;;21.77;12.32;;;;;;;15.09;100.00;101115.78;5012672;28;20029;-81
2023/08/04 09:35:04;;;;;;;17.52;11.13;;;;;;;15.13;100.00;101119.78;5012258;28;20041;-81
2023/08/04 09:37:35;;;;;;;16.45;12.23;;;;;;;15.18;100.00;101111.34;5025051;28;20120;-81
2023/08/04 09:40:04;;;;;;;18.13;9.98;;;;;;;15.29;100.00;101112.06;5017713;28;20028;-81
2023/08/04 09:42:30;;;;;;;19.75;11.05;;;;;;;15.31;100.00;101116.22;5031230;28;20048;-81
2023/08/04 09:44:57;;;;;;;20.52;11.13;;;;;;;15.35;100.00;101111.44;4996069;28;20037;-81
2023/08/04 09:47:24;;;;;;;17.02;11.00;;;;;;;15.37;100.00;101122.72;5041519;28;20121;-81
2023/08/04 09:49:51;;;;;;;12.55;9.95;;;;;;;15.32;100.00;101111.75;5014486;28;20029;-81
2023/08/04 09:52:27;;;;;;;17.23;10.55;;;;;;;15.35;100.00;101098.09;5035840;28;20033;-81
2023/08/04 09:54:55;;;;;;;14.23;10.55;;;;;;;15.38;100.00;101103.94;5026327;28;20039;-81
2023/08/04 09:57:23;;;;;;;18.02;12.00;;;;;;;15.45;100.00;101098.81;5044214;28;20031;-81
2023/08/04 09:59:50;;;;;;;15.32;10.15;;;;;;;15.47;100.00;101093.31;5020667;28;20041;-81
2023/08/04 10:02:20;;;;;;;17.38;10.32;;;;;;;15.49;100.00;101089.50;5004651;28;20043;-81
2023/08/04 10:04:50;;;;;;;16.38;10.30;;;;;;;15.50;100.00;101095.66;5025160;28;20120;-81
2023/08/04 10:07:18;;;;;;;13.60;8.93;;;;;;;15.38;100.00;101095.94;5010176;28;20391;-81
2023/08/04 10:09:46;;;;;;;11.32;9.95;;;;;;;15.30;100.00;101087.94;5013397;28;20146;-81
2023/08/04 10:12:13;;;;;;;17.45;10.20;;;;;;;15.27;100.00;101079.41;5058360;28;20081;-81
2023/08/04 10:14:40;;;;;;;15.25;10.00;;;;;;;15.34;100.00;101089.28;5013333;28;20147;-81
2023/08/04 10:17:06;;;;;;;17.13;9.10;;;;;;;15.45;100.00;101087.34;5039111;28;20035;-81
2023/08/04 10:19:34;;;;;;;17.48;9.13;;;;;;;15.52;100.00;101080.34;5032156;28;20503;-80
2023/08/04 10:22:05;;;;;;;17.20;9.30;;;;;;;15.67;100.00;101087.72;5018288;28;20036;-81
2023/08/04 10:24:35;;;;;;;14.40;8.90;;;;;;;15.73;100.00;101092.41;5032694;28;20047;-81
2023/08/04 10:27:11;;;;;;;23.63;8.70;;;;;;;15.75;100.00;101096.56;5049125;28;20047;-81
2023/08/04 10:29:37;;;;;;;14.80;9.10;;;;;;;15.85;100.00;101091.09;5040815;28;20116;-81
2023/08/04 10:32:07;;;;;;;16.80;8.20;;;;;;;15.94;100.00;101088.47;5018233;28;20037;-81
2023/08/04 10:34:35;;;;;;;13.00;8.15;;;;;;;15.92;100.00;101091.28;5016710;28;20414;-81
2023/08/04 10:37:04;;;;;;;14.43;7.75;;;;;;;15.94;100.00;101099.13;5032403;28;20060;-81
2023/08/04 10:39:35;;;;;;;11.82;7.30;;;;;;;15.85;100.00;101099.09;5003268;28;20202;-81
2023/08/04 10:42:23;;;;;;;11.95;7.70;;;;;;;15.84;100.00;101099.25;5009297;28;20021;-81
2023/08/04 10:44:50;;;;;;;12.13;6.93;;;;;;;15.82;100.00;101094.09;5026440;28;20056;-81
2023/08/04 10:47:28;;;;;;;17.52;6.90;;;;;;;15.79;100.00;101085.56;5031435;28;20041;-81
2023/08/04 10:49:55;;;;;;;13.40;6.78;;;;;;;15.71;100.00;101079.25;5017534;28;20044;-80
2023/08/04 10:52:22;;;;;;;12.93;7.22;;;;;;;15.74;100.00;101068.25;5031562;28;20040;-81
2023/08/04 10:54:50;;;;;;;11.63;6.93;;;;;;;15.81;100.00;101075.59;5028637;28;20391;-81
2023/08/04 10:57:23;;;;;;;13.10;7.13;;;;;;;15.95;100.00;101079.44;5022833;28;20391;-81
2023/08/04 10:59:50;;;;;;;13.25;6.60;;;;;;;16.00;100.00;101071.84;5033275;28;20033;-81
2023/08/04 11:02:21;;;;;;;12.00;6.93;;;;;;;15.96;100.00;101057.13;5014033;28;20521;-81
2023/08/04 11:04:48;;;;;;;10.13;6.65;;;;;;;15.91;100.00;101070.94;5030387;28;20036;-81